createdAt,value
2022-11-23T00:00:30.869Z,95688.97
2022-11-23T00:03:00.630Z,95684.22
2022-11-23T00:05:31.841Z,95680.97
2022-11-23T00:08:00.168Z,95669.41
2022-11-23T00:10:28.600Z,95668.81
2022-11-23T00:12:57.003Z,95674.00
2022-11-23T00:15:25.462Z,95675.97
2022-11-23T00:17:53.896Z,95668.50
2022-11-23T00:20:22.326Z,95681.22
2022-11-23T00:22:52.062Z,95674.06
2022-11-23T00:25:32.698Z,95676.50
2022-11-23T00:28:02.252Z,95684.78
2022-11-23T00:30:30.632Z,95679.41
2022-11-23T00:33:01.159Z,95681.31
2022-11-23T00:35:34.030Z,95671.66
2022-11-23T00:38:03.709Z,95676.81
2022-11-23T00:40:31.956Z,95672.13
2022-11-23T00:43:00.223Z,95673.00
2022-11-23T00:45:28.565Z,95671.69
2022-11-23T00:47:56.858Z,95668.44
2022-11-23T00:50:26.242Z,95669.88
2022-11-23T00:52:54.598Z,95668.41
2022-11-23T00:55:24.269Z,95665.28
2022-11-23T00:57:52.574Z,95666.88
2022-11-23T01:00:21.022Z,95662.91
2022-11-23T01:02:49.332Z,95663.16
2022-11-23T01:05:17.926Z,95666.03
2022-11-23T01:07:46.260Z,95664.66
2022-11-23T01:10:14.635Z,95663.69
2022-11-23T01:12:45.198Z,95665.81
2022-11-23T01:15:13.486Z,95659.06
2022-11-23T01:17:41.757Z,95660.28
2022-11-23T01:20:11.539Z,95660.56
2022-11-23T01:22:39.782Z,95663.16
2022-11-23T01:25:09.482Z,95666.72
2022-11-23T01:27:37.815Z,95668.88
2022-11-23T01:30:10.112Z,95678.94
2022-11-23T01:32:38.409Z,95679.34
2022-11-23T01:35:07.945Z,95665.94
2022-11-23T01:37:36.284Z,95662.47
2022-11-23T01:40:05.459Z,95673.34
2022-11-23T01:42:57.137Z,95676.16
2022-11-23T01:45:39.507Z,95677.94
2022-11-23T01:48:14.581Z,95677.25
2022-11-23T01:50:48.279Z,95667.72
2022-11-23T01:53:17.371Z,95671.50
2022-11-23T01:55:49.507Z,95683.03
2022-11-23T01:58:22.429Z,95679.31
2022-11-23T02:00:53.234Z,95686.66
2022-11-23T02:03:21.759Z,95684.09
2022-11-23T02:05:54.493Z,95683.38
2022-11-23T02:08:24.852Z,95680.00
2022-11-23T02:10:55.958Z,95677.41
2022-11-23T02:13:27.481Z,95677.84
2022-11-23T02:15:59.111Z,95688.66
2022-11-23T02:18:32.199Z,95679.03
2022-11-23T02:21:04.999Z,95686.72
2022-11-23T02:23:44.403Z,95680.88
2022-11-23T02:26:19.500Z,95685.97
2022-11-23T02:28:55.222Z,95689.63
2022-11-23T02:31:24.162Z,95689.66
2022-11-23T02:33:53.456Z,95683.66
2022-11-23T02:36:40.778Z,95680.72
2022-11-23T02:39:14.089Z,95676.91
2022-11-23T02:41:46.942Z,95683.84
2022-11-23T02:44:33.486Z,95685.25
2022-11-23T02:47:04.169Z,95684.78
2022-11-23T02:49:32.691Z,95677.78
2022-11-23T02:52:01.812Z,95677.81
2022-11-23T02:54:30.132Z,95666.94
2022-11-23T02:56:59.915Z,95676.03
2022-11-23T02:59:29.283Z,95669.09
2022-11-23T03:01:57.866Z,95675.81
2022-11-23T03:04:28.131Z,95680.09
2022-11-23T03:06:57.161Z,95679.44
2022-11-23T03:09:28.752Z,95682.66
2022-11-23T03:11:57.638Z,95684.31
2022-11-23T03:14:27.391Z,95675.25
2022-11-23T03:16:55.679Z,95680.38
2022-11-23T03:19:23.979Z,95681.81
2022-11-23T03:21:52.259Z,95683.56
2022-11-23T03:24:20.648Z,95684.78
2022-11-23T03:26:48.985Z,95685.44
2022-11-23T03:29:17.308Z,95680.09
2022-11-23T03:31:47.090Z,95681.41
2022-11-23T03:34:15.461Z,95679.69
2022-11-23T03:36:43.716Z,95678.28
2022-11-23T03:39:12.130Z,95678.00
2022-11-23T03:41:40.399Z,95668.63
2022-11-23T03:44:08.877Z,95668.16
2022-11-23T03:46:37.135Z,95658.28
2022-11-23T03:49:06.925Z,95659.88
2022-11-23T03:51:35.225Z,95649.94
2022-11-23T03:54:03.781Z,95654.69
2022-11-23T03:56:32.053Z,95648.81
2022-11-23T03:59:00.347Z,95654.94
2022-11-23T04:01:28.884Z,95657.72
2022-11-23T04:03:57.443Z,95655.16
2022-11-23T04:06:27.567Z,95651.00
2022-11-23T04:09:01.558Z,95643.47
2022-11-23T04:11:31.003Z,95656.97
2022-11-23T04:13:59.461Z,95651.69
2022-11-23T04:16:27.935Z,95651.84
2022-11-23T04:18:56.458Z,95656.03
2022-11-23T04:21:26.399Z,95663.47
2022-11-23T04:23:54.831Z,95667.63
2022-11-23T04:26:23.358Z,95666.16
2022-11-23T04:28:51.818Z,95652.09
2022-11-23T04:31:20.249Z,95665.59
2022-11-23T04:33:48.787Z,95658.84
2022-11-23T04:36:17.220Z,95656.78
2022-11-23T04:38:47.009Z,95661.19
2022-11-23T04:41:15.527Z,95659.59
2022-11-23T04:43:43.932Z,95657.75
2022-11-23T04:46:13.471Z,95654.13
2022-11-23T04:48:41.972Z,95651.31
2022-11-23T04:51:10.513Z,95648.38
2022-11-23T04:53:38.993Z,95647.09
2022-11-23T04:56:09.840Z,95638.31
2022-11-23T04:58:38.602Z,95645.22
2022-11-23T05:01:08.154Z,95649.91
2022-11-23T05:03:37.007Z,95646.75
2022-11-23T05:06:07.432Z,95645.75
2022-11-23T05:08:35.927Z,95629.84
2022-11-23T05:11:04.563Z,95635.34
2022-11-23T05:13:34.480Z,95622.13
2022-11-23T05:16:02.931Z,95629.91
2022-11-23T05:18:31.269Z,95628.03
2022-11-23T05:20:59.541Z,95634.25
2022-11-23T05:23:27.964Z,95627.66
2022-11-23T05:25:56.297Z,95632.88
2022-11-23T05:28:41.352Z,95621.63
2022-11-23T05:31:12.084Z,95629.56
2022-11-23T05:33:41.446Z,95624.41
2022-11-23T05:36:13.763Z,95617.19
2022-11-23T05:38:42.699Z,95628.00
2022-11-23T05:41:10.970Z,95631.25
2022-11-23T05:43:39.263Z,95633.25
2022-11-23T05:46:07.865Z,95627.94
2022-11-23T05:48:37.506Z,95625.88
2022-11-23T05:51:06.044Z,95624.97
2022-11-23T05:53:34.554Z,95625.47
2022-11-23T05:56:03.285Z,95626.44
2022-11-23T05:58:31.825Z,95634.16
2022-11-23T06:01:01.000Z,95625.38
2022-11-23T06:03:29.814Z,95632.16
2022-11-23T06:05:59.662Z,95644.38
2022-11-23T06:08:27.973Z,95634.50
2022-11-23T06:10:56.388Z,95642.34
2022-11-23T06:13:24.639Z,95642.78
2022-11-23T06:15:57.278Z,95634.25
2022-11-23T06:18:31.257Z,95642.41
2022-11-23T06:21:02.672Z,95642.59
2022-11-23T06:23:31.249Z,95633.25
2022-11-23T06:26:01.770Z,95640.13
2022-11-23T06:28:30.193Z,95634.56
2022-11-23T06:31:03.078Z,95630.25
2022-11-23T06:33:33.086Z,95645.41
2022-11-23T06:36:05.120Z,95640.00
2022-11-23T06:38:33.636Z,95642.19
2022-11-23T06:41:02.850Z,95645.81
2022-11-23T06:43:31.731Z,95643.06
2022-11-23T06:46:02.000Z,95639.94
2022-11-23T06:48:31.343Z,95648.75
2022-11-23T06:51:03.014Z,95646.22
2022-11-23T06:53:32.450Z,95646.44
2022-11-23T06:56:01.911Z,95642.31
2022-11-23T06:58:30.298Z,95651.88
2022-11-23T07:01:02.894Z,95654.34
2022-11-23T07:03:31.620Z,95653.25
2022-11-23T07:06:00.246Z,95663.81
2022-11-23T07:08:29.946Z,95667.72
2022-11-23T07:11:02.632Z,95661.09
2022-11-23T07:13:32.181Z,95670.16
2022-11-23T07:16:01.008Z,95674.47
2022-11-23T07:18:30.319Z,95676.81
2022-11-23T07:20:59.747Z,95679.63
2022-11-23T07:23:29.809Z,95685.84
2022-11-23T07:25:58.100Z,95678.69
2022-11-23T07:28:26.401Z,95689.28
2022-11-23T07:30:54.724Z,95693.97
2022-11-23T07:33:23.069Z,95690.44
2022-11-23T07:35:51.326Z,95691.38
2022-11-23T07:38:22.093Z,95698.88
2022-11-23T07:40:52.410Z,95690.28
2022-11-23T07:43:20.701Z,95686.41
2022-11-23T07:45:49.035Z,95693.19
2022-11-23T07:48:18.165Z,95693.56
2022-11-23T07:50:46.411Z,95694.63
2022-11-23T07:53:14.687Z,95702.00
2022-11-23T07:55:43.031Z,95710.94
2022-11-23T07:58:13.416Z,95713.44
2022-11-23T08:00:41.695Z,95707.00
2022-11-23T08:03:30.272Z,95708.50
2022-11-23T08:05:59.034Z,95717.22
2022-11-23T08:08:27.424Z,95710.41
2022-11-23T08:10:55.720Z,95702.66
2022-11-23T08:13:25.399Z,95701.22
2022-11-23T08:15:56.234Z,95699.63
2022-11-23T08:18:25.670Z,95708.09
2022-11-23T08:20:54.137Z,95702.06
2022-11-23T08:23:25.646Z,95697.91
2022-11-23T08:25:53.956Z,95699.53
2022-11-23T08:28:26.423Z,95688.66
2022-11-23T08:30:55.125Z,95694.34
2022-11-23T08:33:23.437Z,95683.66
2022-11-23T08:35:52.875Z,95698.50
2022-11-23T08:38:21.140Z,95693.56
2022-11-23T08:40:49.525Z,95697.41
2022-11-23T08:43:20.910Z,95686.41
2022-11-23T08:45:50.530Z,95682.03
2022-11-23T08:48:18.999Z,95678.81
2022-11-23T08:50:50.221Z,95680.78
2022-11-23T08:53:18.817Z,95671.69
2022-11-23T08:55:47.610Z,95664.31
2022-11-23T08:58:15.896Z,95683.53
2022-11-23T09:00:44.222Z,95679.09
2022-11-23T09:03:13.929Z,95681.81
2022-11-23T09:05:42.255Z,95678.47
2022-11-23T09:08:13.754Z,95668.75
2022-11-23T09:10:42.058Z,95666.66
2022-11-23T09:13:10.641Z,95674.97
2022-11-23T09:15:39.068Z,95672.38
2022-11-23T09:18:07.535Z,95665.78
2022-11-23T09:20:41.276Z,95676.03
2022-11-23T09:23:14.227Z,95660.84
2022-11-23T09:25:43.281Z,95667.66
2022-11-23T09:28:12.731Z,95672.31
2022-11-23T09:30:41.042Z,95665.66
2022-11-23T09:33:09.598Z,95657.59
2022-11-23T09:35:43.582Z,95663.97
2022-11-23T09:38:13.613Z,95666.69
2022-11-23T09:40:42.793Z,95670.94
2022-11-23T09:43:41.765Z,95662.34
2022-11-23T09:46:23.737Z,95666.31
2022-11-23T09:49:17.413Z,95658.28
2022-11-23T09:51:48.338Z,95661.28
2022-11-23T09:54:27.183Z,95656.91
2022-11-23T09:57:01.566Z,95666.50
2022-11-23T09:59:43.184Z,95662.72
2022-11-23T10:02:22.676Z,95669.88
2022-11-23T10:04:54.458Z,95660.47
2022-11-23T10:07:44.780Z,95665.84
2022-11-23T10:10:33.151Z,95666.38
2022-11-23T10:13:15.501Z,95662.09
2022-11-23T10:16:03.084Z,95659.66
2022-11-23T10:18:43.483Z,95664.47
2022-11-23T10:21:20.494Z,95655.44
2022-11-23T10:23:55.614Z,95656.94
2022-11-23T10:26:30.922Z,95658.50
2022-11-23T10:29:10.948Z,95662.00
2022-11-23T10:31:39.408Z,95654.91
2022-11-23T10:34:14.033Z,95659.84
2022-11-23T10:36:43.160Z,95669.06
2022-11-23T10:39:24.934Z,95666.25
2022-11-23T10:41:54.490Z,95654.88
2022-11-23T10:44:32.792Z,95661.34
2022-11-23T10:47:01.710Z,95659.72
2022-11-23T10:49:33.900Z,95658.50
2022-11-23T10:52:30.348Z,95654.13
2022-11-23T10:55:03.140Z,95649.81
2022-11-23T10:57:34.831Z,95652.19
2022-11-23T11:00:25.815Z,95648.53
2022-11-23T11:03:00.141Z,95646.69
2022-11-23T11:06:07.435Z,95641.03
2022-11-23T11:08:29.560Z,95636.91
2022-11-23T11:11:04.494Z,95639.88
2022-11-23T11:13:40.937Z,95628.22
2022-11-23T11:16:23.080Z,95627.81
2022-11-23T11:18:51.321Z,95621.28
2022-11-23T11:21:23.383Z,95626.53
2022-11-23T11:23:56.250Z,95626.78
2022-11-23T11:26:28.418Z,95609.97
2022-11-23T11:29:02.004Z,95616.34
2022-11-23T11:31:51.923Z,95611.88
2022-11-23T11:34:26.904Z,95615.44
2022-11-23T11:37:05.973Z,95605.16
2022-11-23T11:39:42.565Z,95606.84
2022-11-23T11:42:19.930Z,95608.50
2022-11-23T11:44:51.954Z,95601.97
2022-11-23T11:47:30.196Z,95594.22
2022-11-23T11:50:03.139Z,95582.47
2022-11-23T11:52:40.204Z,95596.25
2022-11-23T11:55:17.126Z,95600.88
2022-11-23T11:57:53.273Z,95594.22
2022-11-23T12:00:23.209Z,95602.81
2022-11-23T12:03:04.974Z,95586.56
2022-11-23T12:05:42.576Z,95588.91
2022-11-23T12:08:18.686Z,95588.41
2022-11-23T12:10:52.261Z,95577.75
2022-11-23T12:13:25.592Z,95574.31
2022-11-23T12:16:05.697Z,95568.44
2022-11-23T12:18:53.301Z,95560.84
2022-11-23T12:21:44.851Z,95557.38
2022-11-23T12:24:22.304Z,95554.63
2022-11-23T12:27:01.912Z,95563.41
2022-11-23T12:29:50.856Z,95564.06
2022-11-23T12:32:32.224Z,95552.72
2022-11-23T12:35:35.644Z,95566.91
2022-11-23T12:38:18.031Z,95559.31
2022-11-23T12:41:18.054Z,95563.53
2022-11-23T12:44:02.404Z,95547.34
2022-11-23T12:46:42.246Z,95548.81
2022-11-23T12:49:28.944Z,95540.97
2022-11-23T12:52:11.350Z,95545.88
2022-11-23T12:54:55.530Z,95548.38
2022-11-23T12:57:31.171Z,95552.13
2022-11-23T13:00:03.852Z,95543.47
2022-11-23T13:03:25.050Z,95543.97
2022-11-23T13:06:33.694Z,95548.50
2022-11-23T13:09:29.093Z,95546.94
2022-11-23T13:12:19.651Z,95543.09
2022-11-23T13:15:04.685Z,95541.69
2022-11-23T13:17:46.558Z,95527.94
2022-11-23T13:20:59.115Z,95536.34
2022-11-23T13:23:27.658Z,95533.31
2022-11-23T13:26:15.415Z,95541.63
2022-11-23T13:28:44.740Z,95533.31
2022-11-23T13:31:26.854Z,95538.28
2022-11-23T13:34:01.173Z,95537.50
2022-11-23T13:40:06.335Z,95535.97
2022-11-23T13:42:36.869Z,95531.22
2022-11-23T13:45:30.566Z,95533.44
2022-11-23T13:48:49.012Z,95530.13
2022-11-23T13:51:10.499Z,95523.34
2022-11-23T13:53:43.367Z,95526.75
2022-11-23T13:56:35.775Z,95519.13
2022-11-23T13:59:32.708Z,95510.25
2022-11-23T14:02:29.967Z,95513.53
2022-11-23T14:05:56.483Z,95516.78
2022-11-23T14:08:28.194Z,95525.56
2022-11-23T14:11:00.370Z,95516.19
2022-11-23T14:13:34.902Z,95508.47
2022-11-23T14:16:05.511Z,95510.25
2022-11-23T14:18:54.301Z,95514.69
2022-11-23T14:21:33.871Z,95503.44
2022-11-23T14:24:54.449Z,95511.13
2022-11-23T14:27:47.856Z,95506.09
2022-11-23T14:30:44.621Z,95503.00
2022-11-23T14:33:28.852Z,95511.66
2022-11-23T14:36:10.576Z,95499.47
2022-11-23T14:39:05.876Z,95509.50
2022-11-23T14:41:37.417Z,95493.63
2022-11-23T14:44:10.050Z,95503.50
2022-11-23T14:47:01.732Z,95497.31
2022-11-23T14:49:32.041Z,95499.91
2022-11-23T14:52:02.949Z,95495.34
2022-11-23T14:54:32.581Z,95495.03
2022-11-23T14:57:05.233Z,95486.81
2022-11-23T14:59:37.992Z,95492.44
2022-11-23T15:02:16.240Z,95492.47
2022-11-23T15:05:06.238Z,95485.00
2022-11-23T15:07:49.702Z,95484.81
2022-11-23T15:10:34.636Z,95476.56
2022-11-23T15:13:21.295Z,95482.09
2022-11-23T15:15:55.039Z,95472.31
2022-11-23T15:18:32.220Z,95475.47
2022-11-23T15:21:05.824Z,95480.44
2022-11-23T15:23:39.816Z,95473.72
2022-11-23T15:26:34.628Z,95473.50
2022-11-23T15:29:06.358Z,95484.13
2022-11-23T15:32:00.427Z,95478.25
2022-11-23T15:34:30.868Z,95475.94
2022-11-23T15:37:00.370Z,95481.66
2022-11-23T15:39:39.160Z,95481.13
2022-11-23T15:42:08.367Z,95481.16
2022-11-23T15:44:51.079Z,95492.28
2022-11-23T15:47:27.378Z,95482.34
2022-11-23T15:50:03.155Z,95492.00
2022-11-23T15:52:38.058Z,95496.66
2022-11-23T15:55:14.375Z,95491.38
2022-11-23T15:57:43.671Z,95494.38
2022-11-23T16:00:26.219Z,95498.69
2022-11-23T16:03:28.616Z,95498.41
2022-11-23T16:06:26.641Z,95510.91
2022-11-23T16:08:55.109Z,95515.41
2022-11-23T16:11:33.827Z,95516.78
2022-11-23T16:14:16.627Z,95520.13
2022-11-23T16:16:51.421Z,95507.66
2022-11-23T16:19:30.198Z,95520.91
2022-11-23T16:22:03.195Z,95519.09
2022-11-23T16:24:35.815Z,95523.13
2022-11-23T16:27:14.371Z,95536.97
2022-11-23T16:29:43.072Z,95536.03
2022-11-23T16:32:34.757Z,95532.72
2022-11-23T16:35:18.483Z,95551.97
2022-11-23T16:37:47.605Z,95559.97
2022-11-23T16:40:18.316Z,95579.31
2022-11-23T16:42:53.296Z,95589.06
2022-11-23T16:45:22.164Z,95581.13
2022-11-23T16:47:57.188Z,95596.00
2022-11-23T16:50:25.731Z,95612.47
2022-11-23T16:52:54.509Z,95609.19
2022-11-23T16:55:23.177Z,95617.41
2022-11-23T16:57:52.648Z,95628.75
2022-11-23T17:00:23.716Z,95633.34
2022-11-23T17:02:52.193Z,95636.53
2022-11-23T17:05:24.676Z,95636.28
2022-11-23T17:07:54.181Z,95655.59
2022-11-23T17:10:28.535Z,95674.66
2022-11-23T17:12:57.419Z,95694.38
2022-11-23T17:15:26.932Z,95704.28
2022-11-23T17:17:57.465Z,95715.38
2022-11-23T17:20:28.869Z,95725.88
2022-11-23T17:23:00.282Z,95729.38
2022-11-23T17:25:30.488Z,95738.66
2022-11-23T17:28:00.538Z,95679.84
2022-11-23T17:30:29.684Z,95704.75
2022-11-23T17:32:58.286Z,95763.34
2022-11-23T17:35:32.676Z,95760.22
2022-11-23T17:38:05.211Z,95756.56
2022-11-23T17:40:36.006Z,95767.31
2022-11-23T17:43:05.792Z,95776.50
2022-11-23T17:45:36.318Z,95784.94
2022-11-23T17:48:05.530Z,95782.59
2022-11-23T17:50:35.405Z,95786.78
2022-11-23T17:53:07.092Z,95794.94
2022-11-23T17:55:36.603Z,95813.56
2022-11-23T17:58:07.386Z,95808.72
2022-11-23T18:00:37.672Z,95817.47
2022-11-23T18:03:06.136Z,95828.53
2022-11-23T18:05:37.216Z,95826.25
2022-11-23T18:08:06.724Z,95845.03
2022-11-23T18:10:35.337Z,95848.91
2022-11-23T18:13:07.672Z,95848.28
2022-11-23T18:15:38.128Z,95844.69
2022-11-23T18:18:06.798Z,95860.03
2022-11-23T18:20:37.059Z,95859.34
2022-11-23T18:23:05.786Z,95865.94
2022-11-23T18:25:35.015Z,95867.13
2022-11-23T18:28:04.471Z,95870.75
2022-11-23T18:30:33.688Z,95887.25
2022-11-23T18:33:02.163Z,95872.28
2022-11-23T18:35:31.015Z,95877.03
2022-11-23T18:38:01.547Z,95872.09
2022-11-23T18:40:30.710Z,95881.19
2022-11-23T18:43:00.279Z,95883.47
2022-11-23T18:45:28.880Z,95887.69
2022-11-23T18:47:58.099Z,95897.22
2022-11-23T18:50:26.946Z,95901.19
2022-11-23T18:52:57.058Z,95901.63
2022-11-23T18:55:28.253Z,95915.25
2022-11-23T18:57:57.868Z,95911.16
2022-11-23T19:00:27.742Z,95910.50
2022-11-23T19:02:58.446Z,95931.34
2022-11-23T19:05:28.794Z,95932.66
2022-11-23T19:08:04.222Z,95928.69
2022-11-23T19:10:39.351Z,95927.78
2022-11-23T19:13:08.558Z,95944.44
2022-11-23T19:15:38.656Z,95952.25
2022-11-23T19:18:09.144Z,95968.56
2022-11-23T19:20:41.216Z,95959.09
2022-11-23T19:23:12.113Z,95976.50
2022-11-23T19:25:43.516Z,95979.63
2022-11-23T19:28:12.020Z,95985.88
2022-11-23T19:30:40.318Z,95994.59
2022-11-23T19:33:08.946Z,96012.28
2022-11-23T19:35:37.365Z,96024.75
2022-11-23T19:38:05.964Z,96017.50
2022-11-23T19:40:34.447Z,96034.19
2022-11-23T19:43:05.502Z,96023.66
2022-11-23T19:45:34.293Z,96032.69
2022-11-23T19:48:02.894Z,96057.31
2022-11-23T19:50:33.204Z,96042.69
2022-11-23T19:53:12.477Z,96054.78
2022-11-23T19:55:42.253Z,96053.41
2022-11-23T19:58:15.453Z,96061.22
2022-11-23T20:00:45.809Z,96068.22
2022-11-23T20:03:15.291Z,96064.59
2022-11-23T20:05:57.391Z,96074.81
2022-11-23T20:08:26.381Z,96087.28
2022-11-23T20:10:54.930Z,96079.31
2022-11-23T20:13:25.285Z,96093.53
2022-11-23T20:15:54.071Z,96090.03
2022-11-23T20:18:26.880Z,96099.47
2022-11-23T20:20:59.298Z,96106.75
2022-11-23T20:23:29.325Z,96101.31
2022-11-23T20:25:58.753Z,96109.06
2022-11-23T20:28:28.746Z,96112.44
2022-11-23T20:30:57.276Z,96109.50
2022-11-23T20:33:27.610Z,96124.66
2022-11-23T20:36:26.057Z,96127.81
2022-11-23T20:38:58.956Z,96129.47
2022-11-23T20:41:29.724Z,96145.69
2022-11-23T20:44:03.888Z,96141.44
2022-11-23T20:47:00.538Z,96157.28
2022-11-23T20:49:24.232Z,96154.69
2022-11-23T20:51:53.403Z,96157.56
2022-11-23T20:54:24.248Z,96165.50
2022-11-23T20:56:58.026Z,96163.66
2022-11-23T20:59:28.100Z,96165.34
2022-11-23T21:01:56.697Z,96174.41
2022-11-23T21:04:26.796Z,96190.06
2022-11-23T21:06:55.842Z,96194.22
2022-11-23T21:09:24.710Z,96198.53
2022-11-23T21:12:15.417Z,96202.63
2022-11-23T21:14:45.935Z,96202.06
2022-11-23T21:17:16.038Z,96200.78
2022-11-23T21:19:44.964Z,96201.44
2022-11-23T21:22:18.731Z,96196.94
2022-11-23T21:24:56.888Z,96203.25
2022-11-23T21:27:28.258Z,96213.34
2022-11-23T21:30:01.049Z,96221.72
2022-11-23T21:32:29.633Z,96225.25
2022-11-23T21:34:59.027Z,96233.34
2022-11-23T21:37:28.873Z,96242.44
2022-11-23T21:40:11.740Z,96253.78
2022-11-23T21:42:54.621Z,96243.81
2022-11-23T21:45:27.969Z,96244.47
2022-11-23T21:47:57.421Z,96243.34
2022-11-23T21:50:27.961Z,96247.53
2022-11-23T21:52:58.082Z,96241.44
2022-11-23T21:55:30.243Z,96245.16
2022-11-23T21:58:04.796Z,96242.34
2022-11-23T22:00:37.899Z,96251.44
2022-11-23T22:03:07.768Z,96260.84
2022-11-23T22:05:38.777Z,96271.94
2022-11-23T22:11:01.171Z,96281.00
2022-11-23T22:13:36.892Z,96283.56
2022-11-23T22:16:17.232Z,96272.81
2022-11-23T22:18:51.418Z,96288.22
2022-11-23T22:21:25.777Z,96286.25
2022-11-23T22:23:54.636Z,96282.09
2022-11-23T22:26:26.260Z,96285.78
2022-11-23T22:28:57.769Z,96290.06
2022-11-23T22:31:29.587Z,96290.72
2022-11-23T22:33:59.185Z,96305.06
2022-11-23T22:36:29.358Z,96312.81
2022-11-23T22:39:02.307Z,96303.53
2022-11-23T22:41:34.870Z,96306.28
2022-11-23T22:44:05.984Z,96317.03
2022-11-23T22:46:37.361Z,96315.13
2022-11-23T22:49:07.195Z,96332.56
2022-11-23T22:51:37.784Z,96331.28
2022-11-23T22:54:06.724Z,96333.34
2022-11-23T22:56:39.104Z,96328.91
2022-11-23T22:59:08.788Z,96338.94
2022-11-23T23:01:39.006Z,96349.75
2022-11-23T23:04:07.864Z,96342.59
2022-11-23T23:06:38.297Z,96344.84
2022-11-23T23:09:09.220Z,96354.72
2022-11-23T23:11:39.202Z,96352.84
2022-11-23T23:14:08.579Z,96352.75
2022-11-23T23:16:39.956Z,96351.38
2022-11-23T23:19:09.421Z,96352.84
2022-11-23T23:21:39.893Z,96339.28
2022-11-23T23:24:10.989Z,96348.97
2022-11-23T23:26:40.996Z,96348.84
2022-11-23T23:29:10.099Z,96342.91
2022-11-23T23:31:40.235Z,96361.50
2022-11-23T23:34:08.913Z,96361.00
2022-11-23T23:36:43.555Z,96355.66
2022-11-23T23:39:12.508Z,96358.00
2022-11-23T23:41:41.154Z,96371.31
2022-11-23T23:44:11.895Z,96370.09
2022-11-23T23:46:48.174Z,96368.75
2022-11-23T23:49:17.793Z,96374.25
2022-11-23T23:51:51.445Z,96367.09
2022-11-23T23:54:21.509Z,96364.66
2022-11-23T23:56:50.057Z,96361.94
2022-11-23T23:59:18.594Z,96365.69
